createdAt,value
2019-04-30T00:00:46.320Z,1.00
2019-04-30T00:03:19.574Z,1.32
2019-04-30T00:05:49.347Z,1.35
2019-04-30T00:08:18.624Z,1.22
2019-04-30T00:10:46.814Z,1.65
2019-04-30T00:13:20.655Z,1.35
2019-04-30T00:15:45.246Z,1.27
2019-04-30T00:18:16.799Z,1.20
2019-04-30T00:20:46.983Z,1.55
2019-04-30T00:23:17.751Z,1.20
2019-04-30T00:25:46.010Z,1.10
2019-04-30T00:28:15.620Z,1.07
2019-04-30T00:30:45.137Z,1.35
2019-04-30T00:33:21.512Z,1.10
2019-04-30T00:35:45.299Z,1.30
2019-04-30T00:38:15.135Z,1.15
2019-04-30T00:40:45.053Z,1.22
2019-04-30T00:43:13.339Z,1.20
2019-04-30T00:45:44.864Z,1.22
2019-04-30T00:48:12.337Z,1.20
2019-04-30T00:50:40.484Z,1.25
2019-04-30T00:53:12.519Z,1.32
2019-04-30T00:55:44.412Z,1.10
2019-04-30T00:58:08.130Z,1.20
2019-04-30T01:00:39.003Z,0.88
2019-04-30T01:03:11.639Z,2.63
2019-04-30T01:05:46.481Z,1.10
2019-04-30T01:08:10.119Z,1.20
2019-04-30T01:10:38.247Z,1.20
2019-04-30T01:13:08.140Z,1.57
2019-04-30T01:15:39.050Z,1.10
2019-04-30T01:18:09.233Z,1.37
2019-04-30T01:20:38.646Z,1.10
2019-04-30T01:23:09.853Z,1.30
2019-04-30T01:25:38.773Z,1.30
2019-04-30T01:28:08.362Z,1.67
2019-04-30T01:30:37.261Z,1.22
2019-04-30T01:33:05.419Z,1.02
2019-04-30T01:35:33.503Z,1.00
2019-04-30T01:38:03.978Z,1.10
2019-04-30T01:40:31.359Z,0.87
2019-04-30T01:42:59.431Z,0.90
2019-04-30T01:45:31.488Z,1.22
2019-04-30T01:48:00.732Z,1.10
2019-04-30T01:50:29.178Z,0.93
2019-04-30T01:52:59.063Z,1.10
2019-04-30T01:55:45.366Z,1.12
2019-04-30T01:58:33.369Z,1.05
2019-04-30T02:01:09.300Z,1.10
2019-04-30T02:03:37.434Z,1.25
2019-04-30T02:06:05.496Z,0.75
2019-04-30T02:08:33.560Z,1.02
2019-04-30T02:11:02.735Z,1.32
2019-04-30T02:13:34.279Z,0.70
2019-04-30T02:16:00.597Z,1.13
2019-04-30T02:18:29.794Z,1.10
2019-04-30T02:20:59.489Z,1.20
2019-04-30T02:23:29.538Z,1.30
2019-04-30T02:25:58.936Z,1.12
2019-04-30T02:28:28.972Z,1.00
2019-04-30T02:30:59.937Z,1.15
2019-04-30T02:33:30.342Z,0.90
2019-04-30T02:36:03.795Z,1.22
2019-04-30T02:38:39.721Z,1.05
2019-04-30T02:41:09.793Z,1.40
2019-04-30T02:43:39.847Z,1.00
2019-04-30T02:46:09.717Z,1.13
2019-04-30T02:48:39.690Z,1.10
2019-04-30T02:51:10.217Z,1.25
2019-04-30T02:53:52.238Z,0.98
2019-04-30T02:56:21.755Z,1.05
2019-04-30T02:58:50.709Z,1.15
2019-04-30T03:01:20.284Z,1.27
2019-04-30T03:03:50.099Z,1.10
2019-04-30T03:06:20.554Z,1.50
2019-04-30T03:08:50.672Z,1.37
2019-04-30T03:11:20.702Z,1.40
2019-04-30T03:13:49.509Z,1.22
2019-04-30T03:16:20.820Z,1.00
2019-04-30T03:18:50.893Z,1.17
2019-04-30T03:21:20.601Z,1.12
2019-04-30T03:23:50.287Z,1.45
2019-04-30T03:26:20.036Z,1.40
2019-04-30T03:28:49.297Z,0.90
2019-04-30T03:31:21.980Z,1.00
2019-04-30T03:33:51.968Z,1.05
2019-04-30T03:36:21.329Z,1.43
2019-04-30T03:38:46.996Z,1.13
2019-04-30T03:41:15.076Z,1.17
2019-04-30T03:43:43.128Z,1.35
2019-04-30T03:46:11.208Z,1.32
2019-04-30T03:48:39.683Z,1.27
2019-04-30T03:51:10.564Z,1.30
2019-04-30T03:53:39.679Z,1.67
2019-04-30T03:56:09.478Z,1.30
2019-04-30T03:58:39.519Z,1.47
2019-04-30T04:01:10.106Z,0.72
2019-04-30T04:03:56.722Z,1.12
2019-04-30T04:06:29.600Z,1.98
2019-04-30T04:09:02.260Z,1.17
2019-04-30T04:11:32.065Z,0.75
2019-04-30T04:14:00.138Z,1.05
2019-04-30T04:16:29.315Z,1.80
2019-04-30T04:18:59.470Z,1.17
2019-04-30T04:21:29.973Z,1.23
2019-04-30T04:24:00.121Z,0.90
2019-04-30T04:26:29.672Z,1.22
2019-04-30T04:28:59.168Z,1.20
2019-04-30T04:31:29.675Z,1.35
2019-04-30T04:33:59.781Z,1.13
2019-04-30T04:36:26.530Z,0.83
2019-04-30T04:38:54.695Z,1.50
2019-04-30T04:41:22.751Z,2.00
2019-04-30T04:43:51.782Z,1.07
2019-04-30T04:46:20.512Z,0.82
2019-04-30T04:48:49.526Z,1.15
2019-04-30T04:51:33.495Z,1.20
2019-04-30T04:53:49.831Z,1.87
2019-04-30T04:56:19.102Z,1.37
2019-04-30T04:58:47.075Z,2.20
2019-04-30T05:03:59.069Z,1.50
2019-04-30T05:06:29.805Z,1.43
2019-04-30T05:11:25.240Z,0.80
2019-04-30T05:13:53.321Z,1.32
2019-04-30T05:16:21.409Z,1.32
2019-04-30T05:18:49.551Z,1.10
2019-04-30T05:21:18.818Z,1.77
2019-04-30T05:23:49.112Z,1.65
2019-04-30T05:26:18.938Z,1.40
2019-04-30T05:28:49.027Z,1.30
2019-04-30T05:31:16.452Z,1.23
2019-04-30T05:33:44.540Z,1.27
2019-04-30T05:36:12.610Z,1.85
2019-04-30T05:38:40.716Z,1.62
2019-04-30T05:41:09.289Z,1.80
2019-04-30T05:43:38.697Z,1.62
2019-04-30T05:46:08.328Z,1.15
2019-04-30T05:48:36.640Z,1.82
2019-04-30T05:51:04.764Z,1.17
2019-04-30T05:53:32.833Z,1.67
2019-04-30T05:56:03.031Z,1.98
2019-04-30T05:58:30.757Z,1.70
2019-04-30T06:00:59.760Z,1.50
2019-04-30T06:03:32.458Z,1.65
2019-04-30T06:05:58.972Z,1.50
2019-04-30T06:08:29.220Z,2.12
2019-04-30T06:11:09.384Z,1.65
2019-04-30T06:13:51.196Z,1.62
2019-04-30T06:16:20.947Z,2.20
2019-04-30T06:18:50.630Z,3.05
2019-04-30T06:21:19.307Z,1.98
2019-04-30T06:23:49.280Z,1.80
2019-04-30T06:26:20.473Z,2.10
2019-04-30T06:28:49.280Z,1.60
2019-04-30T06:31:26.077Z,1.85
2019-04-30T06:33:48.749Z,1.77
2019-04-30T06:36:19.040Z,1.67
2019-04-30T06:38:48.974Z,1.92
2019-04-30T06:41:17.204Z,1.40
2019-04-30T06:43:45.373Z,2.05
2019-04-30T06:46:13.481Z,2.05
2019-04-30T06:48:41.986Z,1.12
2019-04-30T06:51:10.193Z,2.62
2019-04-30T06:53:39.186Z,1.92
2019-04-30T06:56:08.889Z,2.08
2019-04-30T06:58:38.864Z,1.75
2019-04-30T07:01:06.907Z,2.70
2019-04-30T07:03:35.004Z,1.42
2019-04-30T07:06:03.172Z,1.98
2019-04-30T07:08:55.631Z,3.30
2019-04-30T07:11:25.371Z,3.58
2019-04-30T07:13:53.437Z,2.55
2019-04-30T07:16:21.541Z,3.72
2019-04-30T07:18:49.698Z,4.00
2019-04-30T07:21:19.874Z,2.58
2019-04-30T07:23:48.529Z,4.70
2019-04-30T07:26:22.731Z,3.20
2019-04-30T07:28:51.773Z,3.50
2019-04-30T07:31:18.988Z,2.92
2019-04-30T07:33:50.637Z,2.65
2019-04-30T07:36:16.174Z,2.43
2019-04-30T07:38:51.884Z,2.33
2019-04-30T07:41:14.006Z,2.40
2019-04-30T07:43:43.139Z,3.47
2019-04-30T07:46:11.295Z,5.37
2019-04-30T07:48:40.293Z,3.77
2019-04-30T07:51:10.500Z,3.10
2019-04-30T07:53:40.445Z,4.72
2019-04-30T07:56:24.104Z,4.55
2019-04-30T07:58:39.060Z,3.93
2019-04-30T08:01:10.304Z,3.25
2019-04-30T08:03:55.430Z,4.47
2019-04-30T08:06:23.812Z,5.00
2019-04-30T08:08:57.232Z,4.78
2019-04-30T08:11:26.062Z,3.43
2019-04-30T08:13:52.458Z,4.00
2019-04-30T08:16:20.881Z,5.25
2019-04-30T08:18:49.277Z,6.17
2019-04-30T08:21:18.972Z,5.33
2019-04-30T08:23:48.926Z,3.67
2019-04-30T08:26:18.750Z,2.47
2019-04-30T08:28:48.796Z,2.20
2019-04-30T08:31:19.367Z,4.15
2019-04-30T08:33:49.061Z,2.92
2019-04-30T08:36:19.546Z,2.92
2019-04-30T08:38:49.383Z,3.52
2019-04-30T08:41:19.159Z,4.73
2019-04-30T08:43:47.130Z,4.87
2019-04-30T08:46:16.436Z,4.15
2019-04-30T08:48:50.734Z,5.47
2019-04-30T08:51:15.027Z,5.10
2019-04-30T08:53:43.303Z,3.95
2019-04-30T08:56:11.474Z,4.30
2019-04-30T08:58:39.756Z,6.22
2019-04-30T09:01:08.823Z,4.08
2019-04-30T09:03:39.134Z,4.70
2019-04-30T09:06:09.313Z,4.03
2019-04-30T09:11:05.246Z,3.87
2019-04-30T09:13:33.663Z,3.75
2019-04-30T09:16:01.803Z,4.12
2019-04-30T09:18:31.600Z,6.37
2019-04-30T09:21:06.099Z,6.30
2019-04-30T09:23:43.039Z,5.03
2019-04-30T09:25:59.345Z,6.03
2019-04-30T09:28:29.356Z,4.00
2019-04-30T09:30:58.657Z,3.83
2019-04-30T09:33:27.022Z,4.80
2019-04-30T09:35:55.087Z,3.95
2019-04-30T09:38:23.183Z,3.50
2019-04-30T09:40:51.279Z,3.87
2019-04-30T09:43:19.465Z,3.75
2019-04-30T09:45:49.572Z,4.22
2019-04-30T09:48:19.062Z,4.12
2019-04-30T09:50:49.718Z,3.25
2019-04-30T09:53:19.627Z,3.77
2019-04-30T09:55:49.634Z,4.75
2019-04-30T09:58:20.931Z,5.15
2019-04-30T10:00:49.834Z,4.80
2019-04-30T10:03:20.137Z,7.37
2019-04-30T10:05:49.149Z,6.53
2019-04-30T10:08:20.281Z,6.22
2019-04-30T10:10:50.779Z,6.05
2019-04-30T10:13:18.865Z,4.45
2019-04-30T10:15:50.206Z,7.50
2019-04-30T10:18:18.519Z,5.45
2019-04-30T10:20:46.655Z,4.50
2019-04-30T10:23:14.721Z,4.35
2019-04-30T10:25:42.795Z,4.58
2019-04-30T10:28:10.874Z,7.80
2019-04-30T10:30:39.285Z,5.17
2019-04-30T10:33:09.793Z,5.47
2019-04-30T10:35:38.616Z,4.50
2019-04-30T10:38:06.940Z,4.45
2019-04-30T10:40:35.075Z,3.35
2019-04-30T10:43:03.275Z,4.50
2019-04-30T10:45:31.517Z,4.80
2019-04-30T10:47:59.731Z,5.17
2019-04-30T10:50:27.889Z,5.35
2019-04-30T10:52:56.033Z,4.75
2019-04-30T10:55:24.241Z,4.20
2019-04-30T10:57:53.559Z,3.72
2019-04-30T11:00:23.248Z,4.75
2019-04-30T11:02:51.307Z,4.20
2019-04-30T11:05:21.130Z,5.85
2019-04-30T11:07:49.548Z,5.62
2019-04-30T11:10:18.890Z,4.10
2019-04-30T11:12:47.107Z,3.95
2019-04-30T11:15:15.255Z,4.10
2019-04-30T11:17:43.600Z,3.37
2019-04-30T11:20:12.232Z,3.40
2019-04-30T11:22:40.487Z,3.33
2019-04-30T11:25:10.020Z,4.87
2019-04-30T11:27:40.693Z,3.62
2019-04-30T11:30:20.272Z,5.72
2019-04-30T11:32:38.760Z,5.70
2019-04-30T11:35:07.345Z,5.62
2019-04-30T11:37:35.583Z,4.65
2019-04-30T11:40:05.179Z,4.40
2019-04-30T11:42:33.356Z,6.57
2019-04-30T11:45:01.516Z,6.58
2019-04-30T11:47:30.834Z,6.78
2019-04-30T11:49:59.013Z,5.70
2019-04-30T11:52:27.327Z,5.67
2019-04-30T11:54:55.420Z,4.62
2019-04-30T11:57:24.191Z,6.72
2019-04-30T11:59:52.255Z,6.80
2019-04-30T12:02:22.187Z,7.12
2019-04-30T12:04:50.406Z,5.12
2019-04-30T12:07:20.223Z,3.80
2019-04-30T12:09:56.069Z,4.33
2019-04-30T12:12:24.861Z,4.30
2019-04-30T12:14:53.073Z,4.58
2019-04-30T12:17:21.247Z,4.22
2019-04-30T12:19:49.419Z,3.12
2019-04-30T12:22:20.042Z,3.33
2019-04-30T12:24:48.877Z,3.10
2019-04-30T12:27:18.693Z,3.67
2019-04-30T12:29:46.928Z,3.87
2019-04-30T12:32:15.067Z,3.98
2019-04-30T12:34:43.232Z,3.47
2019-04-30T12:37:11.365Z,2.95
2019-04-30T12:39:39.555Z,3.92
2019-04-30T12:42:08.772Z,3.10
2019-04-30T12:44:39.885Z,3.05
2019-04-30T12:47:06.788Z,3.75
2019-04-30T12:49:54.992Z,3.15
2019-04-30T12:52:24.716Z,4.03
2019-04-30T12:55:00.273Z,4.65
2019-04-30T12:57:29.978Z,4.12
2019-04-30T13:00:00.045Z,3.42
2019-04-30T13:02:29.038Z,2.80
2019-04-30T13:05:00.231Z,2.98
2019-04-30T13:09:57.326Z,3.45
2019-04-30T13:12:26.157Z,3.77
2019-04-30T13:14:54.915Z,3.00
2019-04-30T13:17:23.107Z,3.15
2019-04-30T13:19:51.289Z,2.60
2019-04-30T13:22:19.441Z,3.02
2019-04-30T13:24:49.602Z,3.12
2019-04-30T13:27:19.234Z,3.70
2019-04-30T13:30:04.904Z,4.28
2019-04-30T13:32:34.674Z,3.10
2019-04-30T13:35:03.457Z,3.65
2019-04-30T13:37:33.220Z,3.05
2019-04-30T13:40:20.266Z,3.72
2019-04-30T13:42:53.471Z,3.50
2019-04-30T13:45:21.566Z,3.05
2019-04-30T13:47:49.654Z,2.80
2019-04-30T13:50:21.055Z,3.40
2019-04-30T13:52:48.927Z,2.52
2019-04-30T13:55:19.072Z,3.02
2019-04-30T13:57:46.913Z,2.87
2019-04-30T14:00:20.706Z,3.02
2019-04-30T14:03:06.745Z,2.90
2019-04-30T14:05:34.969Z,2.60
2019-04-30T14:08:21.516Z,3.58
2019-04-30T14:10:49.575Z,3.50
2019-04-30T14:13:17.646Z,3.95
2019-04-30T14:15:46.970Z,3.27
2019-04-30T14:18:27.391Z,2.85
2019-04-30T14:20:44.979Z,2.58
2019-04-30T14:23:13.148Z,2.72
2019-04-30T14:25:41.237Z,3.27
2019-04-30T14:28:09.509Z,3.52
2019-04-30T14:30:39.290Z,3.17
2019-04-30T14:33:09.299Z,4.08
2019-04-30T14:35:38.589Z,3.27
2019-04-30T14:38:08.884Z,2.60
2019-04-30T14:40:37.210Z,2.45
2019-04-30T14:43:09.230Z,5.08
2019-04-30T14:45:39.182Z,6.00
2019-04-30T14:48:12.754Z,3.92
2019-04-30T14:50:41.572Z,4.60
2019-04-30T14:53:11.298Z,2.62
2019-04-30T14:55:50.184Z,3.25
2019-04-30T14:58:36.166Z,2.75
2019-04-30T15:01:21.285Z,2.70
2019-04-30T15:03:49.607Z,3.20
2019-04-30T15:06:19.385Z,2.65
2019-04-30T15:08:49.487Z,2.98
2019-04-30T15:11:19.047Z,3.08
2019-04-30T15:13:49.294Z,3.25
2019-04-30T15:16:17.173Z,2.72
2019-04-30T15:18:45.253Z,2.60
2019-04-30T15:21:13.386Z,3.20
2019-04-30T15:24:00.904Z,2.52
2019-04-30T15:26:28.720Z,2.27
2019-04-30T15:28:59.998Z,2.22
2019-04-30T15:31:29.527Z,2.00
2019-04-30T15:34:02.868Z,2.80
2019-04-30T15:36:29.404Z,1.95
2019-04-30T15:38:59.258Z,2.20
2019-04-30T15:41:27.372Z,2.70
2019-04-30T15:43:55.473Z,2.27
2019-04-30T15:46:23.541Z,2.58
2019-04-30T15:48:51.676Z,2.80
2019-04-30T15:51:19.827Z,3.77
2019-04-30T15:53:47.984Z,2.50
2019-04-30T15:56:16.146Z,2.42
2019-04-30T15:59:03.021Z,2.10
2019-04-30T16:01:31.099Z,2.62
2019-04-30T16:04:00.218Z,2.90
2019-04-30T16:06:28.606Z,2.20
2019-04-30T16:09:01.238Z,1.95
2019-04-30T16:11:49.241Z,1.90
2019-04-30T16:14:21.838Z,1.95
2019-04-30T16:16:51.575Z,2.30
2019-04-30T16:19:19.831Z,2.45
2019-04-30T16:21:47.941Z,1.95
2019-04-30T16:24:18.731Z,2.70
2019-04-30T16:26:50.604Z,2.42
2019-04-30T16:29:16.890Z,2.20
2019-04-30T16:31:44.963Z,2.55
2019-04-30T16:34:13.033Z,2.20
2019-04-30T16:36:41.176Z,2.50
2019-04-30T16:39:09.444Z,2.47
2019-04-30T16:41:40.600Z,2.55
2019-04-30T16:44:09.216Z,2.25
2019-04-30T16:46:39.425Z,2.02
2019-04-30T16:49:07.376Z,2.12
2019-04-30T16:51:35.529Z,1.82
2019-04-30T16:54:04.824Z,2.45
2019-04-30T16:56:33.049Z,2.37
2019-04-30T16:59:02.835Z,1.90
2019-04-30T17:01:32.449Z,2.15
2019-04-30T17:04:05.117Z,1.97
2019-04-30T17:06:51.208Z,2.08
2019-04-30T17:09:24.017Z,2.52
2019-04-30T17:12:10.303Z,1.87
2019-04-30T17:14:40.081Z,1.95
2019-04-30T17:17:08.205Z,2.05
2019-04-30T17:19:36.276Z,2.33
2019-04-30T17:22:04.421Z,2.15
2019-04-30T17:24:32.529Z,2.20
2019-04-30T17:27:00.660Z,2.02
2019-04-30T17:29:28.955Z,1.87
2019-04-30T17:31:57.031Z,1.75
2019-04-30T17:34:25.141Z,2.40
2019-04-30T17:36:53.281Z,1.87
2019-04-30T17:39:22.001Z,1.95
2019-04-30T17:41:50.166Z,1.60
2019-04-30T17:44:18.783Z,1.72
2019-04-30T17:46:47.124Z,1.70
2019-04-30T17:49:15.304Z,1.52
2019-04-30T17:51:43.405Z,1.22
2019-04-30T17:54:15.153Z,1.40
2019-04-30T17:56:44.228Z,1.55
2019-04-30T17:59:12.809Z,1.75
2019-04-30T18:01:45.652Z,1.50
2019-04-30T18:04:13.818Z,1.50
2019-04-30T18:06:42.049Z,1.37
2019-04-30T18:09:11.028Z,1.20
2019-04-30T18:11:39.658Z,1.27
2019-04-30T18:14:08.798Z,1.15
2019-04-30T18:16:38.701Z,1.20
2019-04-30T18:19:14.557Z,1.30
2019-04-30T18:21:50.340Z,1.20
2019-04-30T18:24:39.375Z,1.05
2019-04-30T18:27:10.306Z,1.05
2019-04-30T18:29:38.449Z,1.25
2019-04-30T18:32:06.598Z,1.40
2019-04-30T18:34:34.852Z,1.10
2019-04-30T18:37:02.990Z,0.88
2019-04-30T18:39:31.086Z,1.32
2019-04-30T18:41:59.150Z,0.80
2019-04-30T18:44:29.452Z,0.90
2019-04-30T18:46:59.005Z,1.22
2019-04-30T18:49:28.733Z,1.20
2019-04-30T18:51:59.026Z,1.12
2019-04-30T18:54:28.950Z,1.32
2019-04-30T18:56:58.954Z,1.00
2019-04-30T18:59:27.060Z,1.07
2019-04-30T19:01:55.112Z,1.00
2019-04-30T19:04:23.286Z,0.88
2019-04-30T19:06:53.059Z,0.85
2019-04-30T19:09:40.138Z,0.80
2019-04-30T19:12:11.186Z,1.20
2019-04-30T19:14:41.222Z,1.10
2019-04-30T19:17:13.997Z,0.90
2019-04-30T19:19:58.944Z,1.52
2019-04-30T19:22:28.593Z,0.80
2019-04-30T19:24:59.520Z,0.80
2019-04-30T19:27:29.593Z,1.10
2019-04-30T19:29:59.426Z,1.05
2019-04-30T19:32:30.288Z,0.80
2019-04-30T19:34:59.073Z,1.00
2019-04-30T19:37:27.423Z,0.78
2019-04-30T19:39:55.772Z,0.80
2019-04-30T19:42:23.916Z,1.05
2019-04-30T19:44:59.016Z,1.25
2019-04-30T19:47:22.748Z,0.80
2019-04-30T19:49:51.908Z,0.78
2019-04-30T19:52:20.003Z,1.20
2019-04-30T19:54:48.767Z,0.90
2019-04-30T19:57:19.149Z,1.00
2019-04-30T19:59:49.085Z,1.05
2019-04-30T20:02:19.118Z,1.35
2019-04-30T20:04:47.087Z,0.87
2019-04-30T20:07:15.165Z,0.82
2019-04-30T20:09:43.302Z,0.98
2019-04-30T20:12:11.449Z,1.00
2019-04-30T20:14:39.577Z,0.93
2019-04-30T20:17:08.889Z,0.90
2019-04-30T20:19:38.742Z,0.75
2019-04-30T20:22:09.365Z,1.02
2019-04-30T20:24:36.836Z,0.98
2019-04-30T20:27:07.464Z,0.90
2019-04-30T20:29:34.774Z,0.95
2019-04-30T20:32:02.866Z,1.52
2019-04-30T20:34:31.025Z,1.20
2019-04-30T20:37:00.340Z,0.98
2019-04-30T20:39:30.247Z,0.93
2019-04-30T20:41:58.304Z,0.90
2019-04-30T20:44:26.416Z,1.17
2019-04-30T20:46:54.480Z,1.10
2019-04-30T20:49:23.623Z,1.10
2019-04-30T20:51:55.216Z,1.50
2019-04-30T20:54:21.508Z,1.30
2019-04-30T20:56:50.980Z,1.22
2019-04-30T20:59:19.327Z,1.40
2019-04-30T21:01:49.028Z,1.55
2019-04-30T21:04:17.246Z,1.43
2019-04-30T21:06:45.321Z,1.77
2019-04-30T21:09:13.834Z,1.50
2019-04-30T21:11:44.961Z,1.47
2019-04-30T21:14:11.767Z,1.50
2019-04-30T21:16:39.872Z,1.35
2019-04-30T21:19:09.053Z,2.02
2019-04-30T21:21:38.719Z,1.35
2019-04-30T21:24:07.013Z,1.52
2019-04-30T21:26:35.173Z,2.08
2019-04-30T21:29:11.068Z,1.80
2019-04-30T21:31:34.787Z,1.60
2019-04-30T21:34:04.620Z,1.60
2019-04-30T21:36:32.785Z,2.00
2019-04-30T21:39:00.840Z,2.00
2019-04-30T21:41:30.540Z,2.10
2019-04-30T21:43:58.680Z,2.10
2019-04-30T21:46:26.825Z,2.30
2019-04-30T21:48:54.900Z,2.40
2019-04-30T21:51:22.976Z,2.00
2019-04-30T21:53:51.060Z,2.70
2019-04-30T21:56:19.227Z,2.40
2019-04-30T21:58:50.109Z,2.25
2019-04-30T22:01:20.134Z,1.75
2019-04-30T22:03:49.880Z,1.90
2019-04-30T22:06:19.560Z,2.52
2019-04-30T22:08:48.993Z,2.95
2019-04-30T22:11:17.337Z,2.65
2019-04-30T22:13:46.118Z,1.98
2019-04-30T22:16:14.355Z,2.67
2019-04-30T22:18:42.532Z,2.35
2019-04-30T22:21:10.671Z,2.83
2019-04-30T22:23:40.288Z,2.15
2019-04-30T22:26:08.405Z,2.35
2019-04-30T22:28:36.633Z,2.52
2019-04-30T22:31:04.847Z,2.30
2019-04-30T22:33:32.931Z,2.60
2019-04-30T22:36:05.753Z,2.33
2019-04-30T22:38:35.569Z,2.77
2019-04-30T22:41:03.786Z,2.75
2019-04-30T22:43:31.994Z,3.08
2019-04-30T22:46:01.802Z,2.30
2019-04-30T22:48:29.888Z,2.70
2019-04-30T22:50:58.196Z,2.80
2019-04-30T22:53:26.328Z,3.05
2019-04-30T22:55:54.421Z,2.95
2019-04-30T22:58:22.563Z,2.65
2019-04-30T23:00:52.527Z,3.08
2019-04-30T23:03:28.082Z,2.42
2019-04-30T23:05:56.178Z,3.33
2019-04-30T23:08:24.329Z,4.05
2019-04-30T23:10:52.456Z,2.20
2019-04-30T23:13:20.840Z,2.65
2019-04-30T23:15:50.622Z,2.33
2019-04-30T23:18:18.767Z,3.33
2019-04-30T23:20:46.908Z,2.30
2019-04-30T23:23:15.040Z,3.33
2019-04-30T23:25:43.212Z,3.10
2019-04-30T23:28:11.376Z,2.62
2019-04-30T23:30:39.456Z,2.42
2019-04-30T23:33:07.534Z,2.00
2019-04-30T23:35:35.672Z,2.72
2019-04-30T23:38:03.927Z,2.33
2019-04-30T23:40:42.551Z,2.80
2019-04-30T23:43:10.653Z,2.90
2019-04-30T23:45:38.729Z,2.50
2019-04-30T23:48:06.829Z,3.37
2019-04-30T23:50:34.986Z,2.92
2019-04-30T23:53:03.075Z,2.80
2019-04-30T23:55:31.242Z,3.10
2019-04-30T23:57:59.495Z,3.33
